Hovedside
METAR-TAF:

METAR-TAF

Lufthavner :

Kalmar lufthavn

Kalmar, Sverige

breddegrad: 56-44N, lengdegrad: 016-18E, høyde over havet: 16 m

Gjeldene værobservasjon

Denne rapporten ble laget for 15 minutter siden, klokken 17:20 UTC
Vind 6 kt fra Nordøst
Temperatur 16°C
Luftfuktighet 88%
Trykk 1026 hPa
Sikt 10 km eller mer
Få skyer i en høyde av 4700 ft

METAR: ESMQ 261720Z 04006KT 9999 FEW047 16/14 Q1026

Tid: 19:35 (17:35 UTC)


TAF: fraværende

Værobservasjoner og værvarsel for over 4000 flyplasser (METAR- og TAF-rapporter).

Tilgjengelige stasjoner er representert av de røde og gule prikkene på kartet.

Hold musepekeren over prikken for å se navnet på stasjonen.

Klikk så for å se værobservasjoner og -varsler.

For å forandre kartet kan du klikke på den grønne knappen med svart kryss for å zoome inn, på den grønne knappen med strek for å zoome ut, eller på de grønne pilene for å se tilstøtende kart.


METAR-TAF: